sensor_id;sensor_type;location;lat;lon;timestamp;temperature;humidity
9179;DHT22;4624;48.126;11.546;2023-04-03T00:01:59;5.50;99.90
9179;DHT22;4624;48.126;11.546;2023-04-03T00:04:28;5.50;99.90
9179;DHT22;4624;48.126;11.546;2023-04-03T00:06:55;5.50;99.90
9179;DHT22;4624;48.126;11.546;2023-04-03T00:09:22;5.40;99.70
9179;DHT22;4624;48.126;11.546;2023-04-03T00:11:48;5.30;99.60
9179;DHT22;4624;48.126;11.546;2023-04-03T00:14:15;5.30;99.70
9179;DHT22;4624;48.126;11.546;2023-04-03T00:16:42;5.30;99.80
9179;DHT22;4624;48.126;11.546;2023-04-03T00:19:09;5.30;99.90
9179;DHT22;4624;48.126;11.546;2023-04-03T00:21:38;5.30;99.90
9179;DHT22;4624;48.126;11.546;2023-04-03T00:24:05;5.40;99.90
9179;DHT22;4624;48.126;11.546;2023-04-03T00:26:32;5.40;99.90
9179;DHT22;4624;48.126;11.546;2023-04-03T00:28:59;5.40;99.90
9179;DHT22;4624;48.126;11.546;2023-04-03T00:31:26;5.30;99.90
9179;DHT22;4624;48.126;11.546;2023-04-03T00:33:52;5.30;99.90
9179;DHT22;4624;48.126;11.546;2023-04-03T00:36:19;5.30;99.90
9179;DHT22;4624;48.126;11.546;2023-04-03T00:38:47;5.30;99.90
9179;DHT22;4624;48.126;11.546;2023-04-03T00:41:14;5.30;99.90
9179;DHT22;4624;48.126;11.546;2023-04-03T00:43:41;5.30;99.90
9179;DHT22;4624;48.126;11.546;2023-04-03T00:46:08;5.30;99.90
9179;DHT22;4624;48.126;11.546;2023-04-03T00:48:37;5.30;99.90
9179;DHT22;4624;48.126;11.546;2023-04-03T00:51:08;5.20;99.90
9179;DHT22;4624;48.126;11.546;2023-04-03T00:53:39;5.20;99.90
9179;DHT22;4624;48.126;11.546;2023-04-03T00:56:10;5.20;99.90
9179;DHT22;4624;48.126;11.546;2023-04-03T00:58:40;5.20;99.90
9179;DHT22;4624;48.126;11.546;2023-04-03T01:01:12;5.10;99.70
9179;DHT22;4624;48.126;11.546;2023-04-03T01:03:40;5.10;99.70
9179;DHT22;4624;48.126;11.546;2023-04-03T01:06:07;5.00;99.70
9179;DHT22;4624;48.126;11.546;2023-04-03T01:08:34;5.00;99.80
9179;DHT22;4624;48.126;11.546;2023-04-03T01:11:02;5.00;99.90
9179;DHT22;4624;48.126;11.546;2023-04-03T01:13:32;5.10;99.90
9179;DHT22;4624;48.126;11.546;2023-04-03T01:16:01;5.00;99.60
9179;DHT22;4624;48.126;11.546;2023-04-03T01:18:28;4.90;99.50
9179;DHT22;4624;48.126;11.546;2023-04-03T01:24:25;4.90;99.70
9179;DHT22;4624;48.126;11.546;2023-04-03T01:26:54;4.90;99.80
9179;DHT22;4624;48.126;11.546;2023-04-03T01:29:22;4.90;99.80
9179;DHT22;4624;48.126;11.546;2023-04-03T01:31:53;5.00;99.80
9179;DHT22;4624;48.126;11.546;2023-04-03T01:34:21;4.90;99.70
9179;DHT22;4624;48.126;11.546;2023-04-03T01:36:48;4.80;99.80
9179;DHT22;4624;48.126;11.546;2023-04-03T01:39:16;4.80;99.90
9179;DHT22;4624;48.126;11.546;2023-04-03T01:41:43;4.80;99.80
9179;DHT22;4624;48.126;11.546;2023-04-03T01:44:10;4.80;99.80
9179;DHT22;4624;48.126;11.546;2023-04-03T01:46:37;4.70;99.80
9179;DHT22;4624;48.126;11.546;2023-04-03T01:49:05;4.80;99.90
9179;DHT22;4624;48.126;11.546;2023-04-03T01:51:32;4.70;99.90
9179;DHT22;4624;48.126;11.546;2023-04-03T01:53:59;4.80;99.90
9179;DHT22;4624;48.126;11.546;2023-04-03T01:56:26;4.90;99.90
9179;DHT22;4624;48.126;11.546;2023-04-03T01:58:53;4.90;99.90
9179;DHT22;4624;48.126;11.546;2023-04-03T02:01:19;4.90;99.90
9179;DHT22;4624;48.126;11.546;2023-04-03T02:03:46;4.90;99.90
9179;DHT22;4624;48.126;11.546;2023-04-03T02:06:14;4.90;99.90
9179;DHT22;4624;48.126;11.546;2023-04-03T02:08:41;4.90;99.90
9179;DHT22;4624;48.126;11.546;2023-04-03T02:11:08;5.00;99.90
9179;DHT22;4624;48.126;11.546;2023-04-03T02:13:35;5.00;99.90
9179;DHT22;4624;48.126;11.546;2023-04-03T02:16:07;5.00;99.90
9179;DHT22;4624;48.126;11.546;2023-04-03T02:18:34;5.00;99.90
9179;DHT22;4624;48.126;11.546;2023-04-03T02:21:00;5.00;99.90
9179;DHT22;4624;48.126;11.546;2023-04-03T02:23:28;5.00;99.90
9179;DHT22;4624;48.126;11.546;2023-04-03T02:26:03;5.00;99.90
9179;DHT22;4624;48.126;11.546;2023-04-03T02:28:30;5.00;99.90
9179;DHT22;4624;48.126;11.546;2023-04-03T02:30:57;4.90;99.80
9179;DHT22;4624;48.126;11.546;2023-04-03T02:33:24;4.80;99.60
9179;DHT22;4624;48.126;11.546;2023-04-03T02:35:52;4.80;99.60
9179;DHT22;4624;48.126;11.546;2023-04-03T02:38:19;4.80;99.40
9179;DHT22;4624;48.126;11.546;2023-04-03T02:40:48;4.70;99.30
9179;DHT22;4624;48.126;11.546;2023-04-03T02:43:15;4.60;99.10
9179;DHT22;4624;48.126;11.546;2023-04-03T02:45:42;4.60;99.10
9179;DHT22;4624;48.126;11.546;2023-04-03T02:48:08;4.60;99.10
9179;DHT22;4624;48.126;11.546;2023-04-03T02:50:35;4.50;99.10
9179;DHT22;4624;48.126;11.546;2023-04-03T02:53:02;4.60;99.10
9179;DHT22;4624;48.126;11.546;2023-04-03T02:55:28;4.60;99.10
9179;DHT22;4624;48.126;11.546;2023-04-03T02:57:57;4.60;99.00
9179;DHT22;4624;48.126;11.546;2023-04-03T03:00:23;4.60;98.90
9179;DHT22;4624;48.126;11.546;2023-04-03T03:02:50;4.50;98.90
9179;DHT22;4624;48.126;11.546;2023-04-03T03:05:17;4.60;99.00
9179;DHT22;4624;48.126;11.546;2023-04-03T03:07:43;4.60;99.00
9179;DHT22;4624;48.126;11.546;2023-04-03T03:10:10;4.60;98.90
9179;DHT22;4624;48.126;11.546;2023-04-03T03:12:37;4.60;98.90
9179;DHT22;4624;48.126;11.546;2023-04-03T03:15:06;4.60;98.90
9179;DHT22;4624;48.126;11.546;2023-04-03T03:17:33;4.60;98.90
9179;DHT22;4624;48.126;11.546;2023-04-03T03:20:01;4.70;99.00
9179;DHT22;4624;48.126;11.546;2023-04-03T03:22:28;4.70;99.00
9179;DHT22;4624;48.126;11.546;2023-04-03T03:24:55;4.60;98.90
9179;DHT22;4624;48.126;11.546;2023-04-03T03:27:22;4.60;98.80
9179;DHT22;4624;48.126;11.546;2023-04-03T03:29:49;4.60;98.80
9179;DHT22;4624;48.126;11.546;2023-04-03T03:32:17;4.70;98.80
9179;DHT22;4624;48.126;11.546;2023-04-03T03:34:44;4.60;98.90
9179;DHT22;4624;48.126;11.546;2023-04-03T03:37:11;4.60;98.50
9179;DHT22;4624;48.126;11.546;2023-04-03T03:39:38;4.60;98.60
9179;DHT22;4624;48.126;11.546;2023-04-03T03:42:04;4.60;98.60
9179;DHT22;4624;48.126;11.546;2023-04-03T03:44:31;4.60;98.60
9179;DHT22;4624;48.126;11.546;2023-04-03T03:46:58;4.60;98.70
9179;DHT22;4624;48.126;11.546;2023-04-03T03:49:26;4.70;98.80
9179;DHT22;4624;48.126;11.546;2023-04-03T03:51:53;4.70;98.80
9179;DHT22;4624;48.126;11.546;2023-04-03T03:54:20;4.70;98.80
9179;DHT22;4624;48.126;11.546;2023-04-03T03:56:47;4.70;98.80
9179;DHT22;4624;48.126;11.546;2023-04-03T03:59:14;4.80;99.30
9179;DHT22;4624;48.126;11.546;2023-04-03T04:01:42;4.80;98.70
9179;DHT22;4624;48.126;11.546;2023-04-03T04:04:08;4.70;98.50
9179;DHT22;4624;48.126;11.546;2023-04-03T04:06:36;4.60;98.40
9179;DHT22;4624;48.126;11.546;2023-04-03T04:09:03;4.50;98.40
9179;DHT22;4624;48.126;11.546;2023-04-03T04:11:30;4.60;98.50
9179;DHT22;4624;48.126;11.546;2023-04-03T04:13:58;4.60;98.50
9179;DHT22;4624;48.126;11.546;2023-04-03T04:16:25;4.50;98.30
9179;DHT22;4624;48.126;11.546;2023-04-03T04:18:52;4.40;98.30
9179;DHT22;4624;48.126;11.546;2023-04-03T04:21:19;4.40;98.30
9179;DHT22;4624;48.126;11.546;2023-04-03T04:23:47;4.40;98.40
9179;DHT22;4624;48.126;11.546;2023-04-03T04:26:14;4.50;98.60
9179;DHT22;4624;48.126;11.546;2023-04-03T04:28:40;4.50;98.60
9179;DHT22;4624;48.126;11.546;2023-04-03T04:31:07;4.60;98.70
9179;DHT22;4624;48.126;11.546;2023-04-03T04:33:34;4.60;98.60
9179;DHT22;4624;48.126;11.546;2023-04-03T04:36:01;4.60;98.50
9179;DHT22;4624;48.126;11.546;2023-04-03T04:38:28;4.60;98.50
9179;DHT22;4624;48.126;11.546;2023-04-03T04:40:56;4.60;98.50
9179;DHT22;4624;48.126;11.546;2023-04-03T04:43:23;4.60;98.60
9179;DHT22;4624;48.126;11.546;2023-04-03T04:46:00;4.60;98.60
9179;DHT22;4624;48.126;11.546;2023-04-03T04:48:27;4.60;98.60
9179;DHT22;4624;48.126;11.546;2023-04-03T04:50:54;4.70;98.50
9179;DHT22;4624;48.126;11.546;2023-04-03T04:53:21;4.60;98.30
9179;DHT22;4624;48.126;11.546;2023-04-03T04:55:47;4.60;98.30
9179;DHT22;4624;48.126;11.546;2023-04-03T04:58:16;4.60;98.30
9179;DHT22;4624;48.126;11.546;2023-04-03T05:00:42;4.60;98.40
9179;DHT22;4624;48.126;11.546;2023-04-03T05:03:09;4.60;98.40
9179;DHT22;4624;48.126;11.546;2023-04-03T05:05:36;4.60;98.50
9179;DHT22;4624;48.126;11.546;2023-04-03T05:08:03;4.60;98.50
9179;DHT22;4624;48.126;11.546;2023-04-03T05:10:30;4.60;98.50
9179;DHT22;4624;48.126;11.546;2023-04-03T05:12:57;4.70;98.50
9179;DHT22;4624;48.126;11.546;2023-04-03T05:15:25;4.70;98.50
9179;DHT22;4624;48.126;11.546;2023-04-03T05:17:52;4.70;98.40
9179;DHT22;4624;48.126;11.546;2023-04-03T05:20:19;4.70;98.50
9179;DHT22;4624;48.126;11.546;2023-04-03T05:22:46;4.70;98.50
9179;DHT22;4624;48.126;11.546;2023-04-03T05:25:12;4.70;98.30
9179;DHT22;4624;48.126;11.546;2023-04-03T05:27:39;4.70;98.30
9179;DHT22;4624;48.126;11.546;2023-04-03T05:30:07;4.70;98.30
9179;DHT22;4624;48.126;11.546;2023-04-03T05:32:35;4.60;98.30
9179;DHT22;4624;48.126;11.546;2023-04-03T05:35:02;4.60;98.30
9179;DHT22;4624;48.126;11.546;2023-04-03T05:37:29;4.70;98.40
9179;DHT22;4624;48.126;11.546;2023-04-03T05:39:55;4.70;98.40
9179;DHT22;4624;48.126;11.546;2023-04-03T05:42:22;4.70;98.40
9179;DHT22;4624;48.126;11.546;2023-04-03T05:44:49;4.80;98.40
9179;DHT22;4624;48.126;11.546;2023-04-03T05:47:16;4.80;98.30
9179;DHT22;4624;48.126;11.546;2023-04-03T05:49:44;4.80;98.20
9179;DHT22;4624;48.126;11.546;2023-04-03T05:52:18;4.70;98.10
9179;DHT22;4624;48.126;11.546;2023-04-03T05:54:47;4.70;98.10
9179;DHT22;4624;48.126;11.546;2023-04-03T05:57:14;4.80;98.10
9179;DHT22;4624;48.126;11.546;2023-04-03T05:59:41;4.70;98.00
9179;DHT22;4624;48.126;11.546;2023-04-03T06:02:10;4.70;97.90
9179;DHT22;4624;48.126;11.546;2023-04-03T06:04:36;4.70;98.00
9179;DHT22;4624;48.126;11.546;2023-04-03T06:07:05;4.80;98.00
9179;DHT22;4624;48.126;11.546;2023-04-03T06:09:32;4.80;97.80
9179;DHT22;4624;48.126;11.546;2023-04-03T06:11:58;4.80;97.90
9179;DHT22;4624;48.126;11.546;2023-04-03T06:14:26;4.90;97.90
9179;DHT22;4624;48.126;11.546;2023-04-03T06:16:53;4.80;97.60
9179;DHT22;4624;48.126;11.546;2023-04-03T06:19:21;4.80;97.60
9179;DHT22;4624;48.126;11.546;2023-04-03T06:21:48;4.80;97.50
9179;DHT22;4624;48.126;11.546;2023-04-03T06:24:17;4.80;97.60
9179;DHT22;4624;48.126;11.546;2023-04-03T06:26:45;4.80;97.60
9179;DHT22;4624;48.126;11.546;2023-04-03T06:29:12;4.80;97.60
9179;DHT22;4624;48.126;11.546;2023-04-03T06:31:39;4.90;97.50
9179;DHT22;4624;48.126;11.546;2023-04-03T06:34:06;4.90;97.40
9179;DHT22;4624;48.126;11.546;2023-04-03T06:36:33;4.80;97.20
9179;DHT22;4624;48.126;11.546;2023-04-03T06:39:00;4.80;97.20
9179;DHT22;4624;48.126;11.546;2023-04-03T06:41:28;4.80;97.20
9179;DHT22;4624;48.126;11.546;2023-04-03T06:43:55;4.90;97.20
9179;DHT22;4624;48.126;11.546;2023-04-03T06:46:24;4.90;97.20
9179;DHT22;4624;48.126;11.546;2023-04-03T06:48:52;5.00;97.30
9179;DHT22;4624;48.126;11.546;2023-04-03T06:51:20;5.10;97.20
9179;DHT22;4624;48.126;11.546;2023-04-03T06:53:48;5.00;97.00
9179;DHT22;4624;48.126;11.546;2023-04-03T06:56:16;5.00;96.90
9179;DHT22;4624;48.126;11.546;2023-04-03T06:58:44;5.00;96.60
9179;DHT22;4624;48.126;11.546;2023-04-03T07:01:14;5.00;96.40
9179;DHT22;4624;48.126;11.546;2023-04-03T07:03:41;4.90;96.20
9179;DHT22;4624;48.126;11.546;2023-04-03T07:06:11;4.90;96.20
9179;DHT22;4624;48.126;11.546;2023-04-03T07:08:38;4.90;96.20
9179;DHT22;4624;48.126;11.546;2023-04-03T07:11:05;5.00;96.20
9179;DHT22;4624;48.126;11.546;2023-04-03T07:13:32;5.00;96.00
9179;DHT22;4624;48.126;11.546;2023-04-03T07:16:01;5.00;96.00
9179;DHT22;4624;48.126;11.546;2023-04-03T07:18:29;5.10;96.10
9179;DHT22;4624;48.126;11.546;2023-04-03T07:20:55;5.10;96.20
9179;DHT22;4624;48.126;11.546;2023-04-03T07:23:23;5.20;96.30
9179;DHT22;4624;48.126;11.546;2023-04-03T07:25:51;5.30;96.40
9179;DHT22;4624;48.126;11.546;2023-04-03T07:28:18;5.40;96.40
9179;DHT22;4624;48.126;11.546;2023-04-03T07:30:47;5.50;96.40
9179;DHT22;4624;48.126;11.546;2023-04-03T07:33:20;5.50;96.40
9179;DHT22;4624;48.126;11.546;2023-04-03T07:35:47;5.40;95.90
9179;DHT22;4624;48.126;11.546;2023-04-03T07:38:13;5.30;95.70
9179;DHT22;4624;48.126;11.546;2023-04-03T07:40:45;5.30;95.70
9179;DHT22;4624;48.126;11.546;2023-04-03T07:43:13;5.30;95.50
9179;DHT22;4624;48.126;11.546;2023-04-03T07:45:40;5.20;95.40
9179;DHT22;4624;48.126;11.546;2023-04-03T07:48:06;5.30;95.40
9179;DHT22;4624;48.126;11.546;2023-04-03T07:50:34;5.30;95.20
9179;DHT22;4624;48.126;11.546;2023-04-03T07:53:01;5.20;95.10
9179;DHT22;4624;48.126;11.546;2023-04-03T07:55:28;5.30;95.10
9179;DHT22;4624;48.126;11.546;2023-04-03T07:57:55;5.30;95.10
9179;DHT22;4624;48.126;11.546;2023-04-03T08:00:22;5.20;95.00
9179;DHT22;4624;48.126;11.546;2023-04-03T08:02:49;5.20;95.00
9179;DHT22;4624;48.126;11.546;2023-04-03T08:05:17;5.20;95.20
9179;DHT22;4624;48.126;11.546;2023-04-03T08:07:45;5.30;95.40
9179;DHT22;4624;48.126;11.546;2023-04-03T08:10:12;5.30;95.40
9179;DHT22;4624;48.126;11.546;2023-04-03T08:12:39;5.20;95.30
9179;DHT22;4624;48.126;11.546;2023-04-03T08:15:07;5.20;95.20
9179;DHT22;4624;48.126;11.546;2023-04-03T08:17:34;5.10;95.10
9179;DHT22;4624;48.126;11.546;2023-04-03T08:20:02;5.10;95.20
9179;DHT22;4624;48.126;11.546;2023-04-03T08:22:30;5.10;95.40
9179;DHT22;4624;48.126;11.546;2023-04-03T08:24:58;5.10;95.40
9179;DHT22;4624;48.126;11.546;2023-04-03T08:27:25;5.10;95.40
9179;DHT22;4624;48.126;11.546;2023-04-03T08:29:52;5.20;95.40
9179;DHT22;4624;48.126;11.546;2023-04-03T08:32:19;5.10;95.40
9179;DHT22;4624;48.126;11.546;2023-04-03T08:34:46;5.10;95.30
9179;DHT22;4624;48.126;11.546;2023-04-03T08:37:13;5.10;95.20
9179;DHT22;4624;48.126;11.546;2023-04-03T08:39:41;5.10;95.20
9179;DHT22;4624;48.126;11.546;2023-04-03T08:42:16;5.20;95.30
9179;DHT22;4624;48.126;11.546;2023-04-03T08:44:49;5.40;95.50
9179;DHT22;4624;48.126;11.546;2023-04-03T08:47:23;5.40;95.30
9179;DHT22;4624;48.126;11.546;2023-04-03T08:49:53;5.40;95.10
9179;DHT22;4624;48.126;11.546;2023-04-03T08:52:26;5.40;94.80
9179;DHT22;4624;48.126;11.546;2023-04-03T08:54:56;5.40;94.80
9179;DHT22;4624;48.126;11.546;2023-04-03T08:57:30;5.40;94.50
9179;DHT22;4624;48.126;11.546;2023-04-03T08:59:59;5.40;94.50
9179;DHT22;4624;48.126;11.546;2023-04-03T09:02:32;5.40;94.50
9179;DHT22;4624;48.126;11.546;2023-04-03T09:05:02;5.60;94.80
9179;DHT22;4624;48.126;11.546;2023-04-03T09:07:35;5.60;94.60
9179;DHT22;4624;48.126;11.546;2023-04-03T09:10:04;5.60;94.40
9179;DHT22;4624;48.126;11.546;2023-04-03T09:12:35;5.60;94.10
9179;DHT22;4624;48.126;11.546;2023-04-03T09:15:14;5.50;94.00
9179;DHT22;4624;48.126;11.546;2023-04-03T09:17:49;5.60;94.00
9179;DHT22;4624;48.126;11.546;2023-04-03T09:20:22;5.60;94.10
9179;DHT22;4624;48.126;11.546;2023-04-03T09:22:51;5.70;94.10
9179;DHT22;4624;48.126;11.546;2023-04-03T09:25:21;5.70;94.10
9179;DHT22;4624;48.126;11.546;2023-04-03T09:27:50;5.90;94.30
9179;DHT22;4624;48.126;11.546;2023-04-03T09:30:19;6.10;94.50
9179;DHT22;4624;48.126;11.546;2023-04-03T09:32:48;6.10;94.30
9179;DHT22;4624;48.126;11.546;2023-04-03T09:35:20;6.20;94.10
9179;DHT22;4624;48.126;11.546;2023-04-03T09:37:49;6.20;93.90
9179;DHT22;4624;48.126;11.546;2023-04-03T09:40:32;6.30;93.90
9179;DHT22;4624;48.126;11.546;2023-04-03T09:43:08;6.40;93.50
9179;DHT22;4624;48.126;11.546;2023-04-03T09:45:46;6.40;93.40
9179;DHT22;4624;48.126;11.546;2023-04-03T09:48:17;6.40;93.40
9179;DHT22;4624;48.126;11.546;2023-04-03T09:50:56;6.30;93.10
9179;DHT22;4624;48.126;11.546;2023-04-03T09:53:33;6.20;93.00
9179;DHT22;4624;48.126;11.546;2023-04-03T09:56:02;6.10;92.80
9179;DHT22;4624;48.126;11.546;2023-04-03T09:58:32;5.90;92.80
9179;DHT22;4624;48.126;11.546;2023-04-03T10:01:00;6.00;93.00
9179;DHT22;4624;48.126;11.546;2023-04-03T10:03:30;6.00;93.10
9179;DHT22;4624;48.126;11.546;2023-04-03T10:05:57;6.00;93.20
9179;DHT22;4624;48.126;11.546;2023-04-03T10:08:28;6.00;93.20
9179;DHT22;4624;48.126;11.546;2023-04-03T10:11:13;6.10;93.30
9179;DHT22;4624;48.126;11.546;2023-04-03T10:13:52;6.30;93.20
9179;DHT22;4624;48.126;11.546;2023-04-03T10:16:22;6.20;92.70
9179;DHT22;4624;48.126;11.546;2023-04-03T10:18:58;6.20;92.50
9179;DHT22;4624;48.126;11.546;2023-04-03T10:21:34;6.20;92.40
9179;DHT22;4624;48.126;11.546;2023-04-03T10:24:10;6.10;92.50
9179;DHT22;4624;48.126;11.546;2023-04-03T10:26:44;6.10;92.80
9179;DHT22;4624;48.126;11.546;2023-04-03T10:29:21;6.00;92.90
9179;DHT22;4624;48.126;11.546;2023-04-03T10:31:53;6.00;93.10
9179;DHT22;4624;48.126;11.546;2023-04-03T10:34:24;5.90;93.20
9179;DHT22;4624;48.126;11.546;2023-04-03T10:36:57;5.90;93.20
9179;DHT22;4624;48.126;11.546;2023-04-03T10:39:31;5.90;93.20
9179;DHT22;4624;48.126;11.546;2023-04-03T10:42:04;5.90;93.30
9179;DHT22;4624;48.126;11.546;2023-04-03T10:44:47;5.90;93.40
9179;DHT22;4624;48.126;11.546;2023-04-03T10:47:20;5.90;93.40
9179;DHT22;4624;48.126;11.546;2023-04-03T10:49:56;5.70;93.10
9179;DHT22;4624;48.126;11.546;2023-04-03T10:52:31;5.60;93.00
9179;DHT22;4624;48.126;11.546;2023-04-03T10:55:24;5.50;93.10
9179;DHT22;4624;48.126;11.546;2023-04-03T10:57:54;5.50;93.30
9179;DHT22;4624;48.126;11.546;2023-04-03T11:00:29;5.50;93.50
9179;DHT22;4624;48.126;11.546;2023-04-03T11:02:59;5.40;93.70
9179;DHT22;4624;48.126;11.546;2023-04-03T11:05:30;5.20;93.80
9179;DHT22;4624;48.126;11.546;2023-04-03T11:08:04;5.10;94.10
9179;DHT22;4624;48.126;11.546;2023-04-03T11:10:37;4.90;94.40
9179;DHT22;4624;48.126;11.546;2023-04-03T11:13:11;4.90;94.80
9179;DHT22;4624;48.126;11.546;2023-04-03T11:15:40;5.00;95.00
9179;DHT22;4624;48.126;11.546;2023-04-03T11:18:12;5.00;95.00
9179;DHT22;4624;48.126;11.546;2023-04-03T11:20:43;5.00;95.10
9179;DHT22;4624;48.126;11.546;2023-04-03T11:23:17;5.00;95.10
9179;DHT22;4624;48.126;11.546;2023-04-03T11:25:48;5.00;94.90
9179;DHT22;4624;48.126;11.546;2023-04-03T11:28:16;5.10;94.90
9179;DHT22;4624;48.126;11.546;2023-04-03T11:30:47;5.20;94.90
9179;DHT22;4624;48.126;11.546;2023-04-03T11:33:26;5.30;94.80
9179;DHT22;4624;48.126;11.546;2023-04-03T11:35:58;5.50;94.70
9179;DHT22;4624;48.126;11.546;2023-04-03T11:38:28;5.70;94.60
9179;DHT22;4624;48.126;11.546;2023-04-03T11:40:57;5.80;94.10
9179;DHT22;4624;48.126;11.546;2023-04-03T11:43:26;6.00;94.10
9179;DHT22;4624;48.126;11.546;2023-04-03T11:45:58;6.10;93.60
9179;DHT22;4624;48.126;11.546;2023-04-03T11:48:49;6.10;93.30
9179;DHT22;4624;48.126;11.546;2023-04-03T11:51:38;6.20;93.10
9179;DHT22;4624;48.126;11.546;2023-04-03T11:54:46;6.20;92.80
9179;DHT22;4624;48.126;11.546;2023-04-03T11:57:44;6.20;92.40
9179;DHT22;4624;48.126;11.546;2023-04-03T12:00:47;6.30;92.50
9179;DHT22;4624;48.126;11.546;2023-04-03T12:12:35;6.50;91.10
9179;DHT22;4624;48.126;11.546;2023-04-03T12:18:31;6.40;89.50
9179;DHT22;4624;48.126;11.546;2023-04-03T12:20:58;6.40;89.40
9179;DHT22;4624;48.126;11.546;2023-04-03T12:23:30;6.40;88.40
9179;DHT22;4624;48.126;11.546;2023-04-03T12:26:18;6.40;86.70
9179;DHT22;4624;48.126;11.546;2023-04-03T12:28:49;6.40;86.10
9179;DHT22;4624;48.126;11.546;2023-04-03T12:31:18;6.40;85.20
9179;DHT22;4624;48.126;11.546;2023-04-03T12:34:05;6.40;84.50
9179;DHT22;4624;48.126;11.546;2023-04-03T12:36:42;6.40;83.90
9179;DHT22;4624;48.126;11.546;2023-04-03T12:42:22;6.20;82.60
9179;DHT22;4624;48.126;11.546;2023-04-03T12:44:59;6.20;82.60
9179;DHT22;4624;48.126;11.546;2023-04-03T12:47:29;6.20;82.30
9179;DHT22;4624;48.126;11.546;2023-04-03T12:49:59;6.30;81.70
9179;DHT22;4624;48.126;11.546;2023-04-03T12:52:35;6.50;81.90
9179;DHT22;4624;48.126;11.546;2023-04-03T12:55:12;6.50;80.10
9179;DHT22;4624;48.126;11.546;2023-04-03T12:57:40;6.70;80.60
9179;DHT22;4624;48.126;11.546;2023-04-03T13:00:28;6.80;80.00
9179;DHT22;4624;48.126;11.546;2023-04-03T13:02:56;6.80;79.20
9179;DHT22;4624;48.126;11.546;2023-04-03T13:05:23;6.80;78.80
9179;DHT22;4624;48.126;11.546;2023-04-03T13:07:55;6.70;78.60
9179;DHT22;4624;48.126;11.546;2023-04-03T13:10:23;6.70;78.80
9179;DHT22;4624;48.126;11.546;2023-04-03T13:12:52;6.80;79.20
9179;DHT22;4624;48.126;11.546;2023-04-03T13:15:21;6.80;77.90
9179;DHT22;4624;48.126;11.546;2023-04-03T13:17:52;6.70;77.50
9179;DHT22;4624;48.126;11.546;2023-04-03T13:20:22;6.80;77.50
9179;DHT22;4624;48.126;11.546;2023-04-03T13:22:56;6.80;77.00
9179;DHT22;4624;48.126;11.546;2023-04-03T13:25:29;7.00;78.10
9179;DHT22;4624;48.126;11.546;2023-04-03T13:27:58;7.20;77.30
9179;DHT22;4624;48.126;11.546;2023-04-03T13:30:28;7.30;75.60
9179;DHT22;4624;48.126;11.546;2023-04-03T13:32:59;7.40;75.60
9179;DHT22;4624;48.126;11.546;2023-04-03T13:35:32;7.40;75.30
9179;DHT22;4624;48.126;11.546;2023-04-03T13:38:01;7.60;74.90
9179;DHT22;4624;48.126;11.546;2023-04-03T13:40:29;7.70;74.50
9179;DHT22;4624;48.126;11.546;2023-04-03T13:43:01;7.80;75.10
9179;DHT22;4624;48.126;11.546;2023-04-03T13:45:28;7.80;74.60
9179;DHT22;4624;48.126;11.546;2023-04-03T13:48:14;7.60;74.00
9179;DHT22;4624;48.126;11.546;2023-04-03T13:50:54;7.40;72.20
9179;DHT22;4624;48.126;11.546;2023-04-03T13:53:21;7.10;72.10
9179;DHT22;4624;48.126;11.546;2023-04-03T13:56:09;6.90;72.10
9179;DHT22;4624;48.126;11.546;2023-04-03T13:58:37;6.80;72.60
9179;DHT22;4624;48.126;11.546;2023-04-03T14:01:11;6.70;73.50
9179;DHT22;4624;48.126;11.546;2023-04-03T14:03:43;6.60;72.00
9179;DHT22;4624;48.126;11.546;2023-04-03T14:06:12;6.50;72.40
9179;DHT22;4624;48.126;11.546;2023-04-03T14:08:40;6.50;72.80
9179;DHT22;4624;48.126;11.546;2023-04-03T14:11:13;6.60;73.60
9179;DHT22;4624;48.126;11.546;2023-04-03T14:13:42;6.70;73.30
9179;DHT22;4624;48.126;11.546;2023-04-03T14:16:13;6.70;73.10
9179;DHT22;4624;48.126;11.546;2023-04-03T14:18:41;6.80;73.50
9179;DHT22;4624;48.126;11.546;2023-04-03T14:21:10;6.80;73.50
9179;DHT22;4624;48.126;11.546;2023-04-03T14:23:37;6.80;72.60
9179;DHT22;4624;48.126;11.546;2023-04-03T14:26:05;6.90;72.80
9179;DHT22;4624;48.126;11.546;2023-04-03T14:28:32;6.90;72.30
9179;DHT22;4624;48.126;11.546;2023-04-03T14:30:59;7.00;72.50
9179;DHT22;4624;48.126;11.546;2023-04-03T14:33:25;7.10;73.00
9179;DHT22;4624;48.126;11.546;2023-04-03T14:35:54;7.20;72.40
9179;DHT22;4624;48.126;11.546;2023-04-03T14:38:24;7.20;72.00
9179;DHT22;4624;48.126;11.546;2023-04-03T14:40:53;7.30;72.10
9179;DHT22;4624;48.126;11.546;2023-04-03T14:43:20;7.50;72.70
9179;DHT22;4624;48.126;11.546;2023-04-03T14:45:48;7.60;73.00
9179;DHT22;4624;48.126;11.546;2023-04-03T14:48:17;7.70;72.60
9179;DHT22;4624;48.126;11.546;2023-04-03T14:50:45;7.70;71.70
9179;DHT22;4624;48.126;11.546;2023-04-03T14:53:14;7.70;70.80
9179;DHT22;4624;48.126;11.546;2023-04-03T14:55:43;7.70;70.40
9179;DHT22;4624;48.126;11.546;2023-04-03T14:58:13;7.60;70.20
9179;DHT22;4624;48.126;11.546;2023-04-03T15:00:41;7.50;68.50
9179;DHT22;4624;48.126;11.546;2023-04-03T15:03:13;7.30;67.50
9179;DHT22;4624;48.126;11.546;2023-04-03T15:05:41;7.30;67.70
9179;DHT22;4624;48.126;11.546;2023-04-03T15:08:18;7.20;67.50
9179;DHT22;4624;48.126;11.546;2023-04-03T15:10:45;7.10;67.80
9179;DHT22;4624;48.126;11.546;2023-04-03T15:13:12;7.10;67.90
9179;DHT22;4624;48.126;11.546;2023-04-03T15:15:40;7.00;67.90
9179;DHT22;4624;48.126;11.546;2023-04-03T15:18:07;6.90;67.70
9179;DHT22;4624;48.126;11.546;2023-04-03T15:20:37;6.90;67.80
9179;DHT22;4624;48.126;11.546;2023-04-03T15:23:04;6.80;66.90
9179;DHT22;4624;48.126;11.546;2023-04-03T15:25:33;6.80;66.70
9179;DHT22;4624;48.126;11.546;2023-04-03T15:27:59;6.70;66.50
9179;DHT22;4624;48.126;11.546;2023-04-03T15:30:26;6.70;64.90
9179;DHT22;4624;48.126;11.546;2023-04-03T15:32:53;6.60;64.90
9179;DHT22;4624;48.126;11.546;2023-04-03T15:35:20;6.60;65.40
9179;DHT22;4624;48.126;11.546;2023-04-03T15:37:47;6.60;65.50
9179;DHT22;4624;48.126;11.546;2023-04-03T15:40:14;6.60;66.00
9179;DHT22;4624;48.126;11.546;2023-04-03T15:42:43;6.60;64.60
9179;DHT22;4624;48.126;11.546;2023-04-03T15:45:09;6.50;64.40
9179;DHT22;4624;48.126;11.546;2023-04-03T15:47:37;6.50;64.30
9179;DHT22;4624;48.126;11.546;2023-04-03T15:50:05;6.50;64.70
9179;DHT22;4624;48.126;11.546;2023-04-03T15:52:33;6.50;64.80
9179;DHT22;4624;48.126;11.546;2023-04-03T15:55:00;6.60;64.50
9179;DHT22;4624;48.126;11.546;2023-04-03T15:57:27;6.50;63.60
9179;DHT22;4624;48.126;11.546;2023-04-03T15:59:55;6.50;62.60
9179;DHT22;4624;48.126;11.546;2023-04-03T16:02:22;6.40;61.30
9179;DHT22;4624;48.126;11.546;2023-04-03T16:04:49;6.40;59.90
9179;DHT22;4624;48.126;11.546;2023-04-03T16:07:16;6.20;59.10
9179;DHT22;4624;48.126;11.546;2023-04-03T16:09:43;6.10;59.00
9179;DHT22;4624;48.126;11.546;2023-04-03T16:12:10;6.10;59.30
9179;DHT22;4624;48.126;11.546;2023-04-03T16:14:36;6.10;59.70
9179;DHT22;4624;48.126;11.546;2023-04-03T16:17:05;6.00;60.20
9179;DHT22;4624;48.126;11.546;2023-04-03T16:19:31;6.00;60.90
9179;DHT22;4624;48.126;11.546;2023-04-03T16:21:58;6.00;61.20
9179;DHT22;4624;48.126;11.546;2023-04-03T16:24:25;5.90;61.30
9179;DHT22;4624;48.126;11.546;2023-04-03T16:26:52;5.90;61.70
9179;DHT22;4624;48.126;11.546;2023-04-03T16:29:19;5.90;61.80
9179;DHT22;4624;48.126;11.546;2023-04-03T16:31:46;5.90;62.00
9179;DHT22;4624;48.126;11.546;2023-04-03T16:34:14;5.80;61.40
9179;DHT22;4624;48.126;11.546;2023-04-03T16:36:41;5.80;61.50